Latest Weather Observations for Avalon

IDV60801

Issued at 9:03 am EST Thursday 27 April 2017 (issued every 30 minutes, with the page automatically refreshed every 10 minutes)

About weather observations | Map of weather stations | Latest weather observations for VIC | Other Formats
Station Details ID: 087113 Name: AVALON AIRPORT Lat: -38.03 Lon: 144.48 Height: 10.6 m
Data from the previous 72 hours. | See also: Recent months at Avalon
Date/Time
EST
Temp
°C
App
Temp
°C
Dew
Point
°C
Rel
Hum
%
Delta-T
°C
Wind Press
QNH
hPa
Press
MSL
hPa
Rain since
9am
mm
Dir  Spd
km/h
Gust
km/h
Spd
kts
Gust
kts
27/09:00am 10.0 6.3 7.8 86 1.1 W 17 22 9 12 1023.6 1023.6 3.2
27/08:30am 8.6 4.8 7.4 92 0.6 WNW 17 19 9 10 1023.3 1023.3 3.2
27/08:00am 7.9 3.4 7.0 94 0.4 WNW 20 24 11 13 1022.9 1022.9 3.2
27/07:30am 7.5 3.4 6.4 93 0.5 W 17 20 9 11 1022.7 1022.7 3.2
27/07:00am 7.4 2.3 6.2 92 0.5 W 22 26 12 14 1022.4 1022.4 3.2
27/06:30am 7.5 4.2 6.3 92 0.5 W 13 20 7 11 1022.3 1022.3 3.2
27/06:00am 7.5 2.7 5.8 89 0.8 W 20 24 11 13 1021.9 1021.9 3.0
27/05:30am 7.6 2.8 5.7 88 0.9 W 20 26 11 14 1021.4 1021.4 3.0
27/05:00am 7.1 3.0 6.0 93 0.5 W 17 22 9 12 1021.0 1021.0 3.0
27/04:30am 6.8 2.2 5.4 91 0.6 W 19 22 10 12 1020.9 1020.9 3.0
27/04:00am 7.1 2.3 5.7 91 0.6 WNW 20 28 11 15 1020.7 1020.7 3.0
27/03:30am 7.3 2.6 6.1 92 0.5 W 20 26 11 14 1020.6 1020.6 3.0
27/03:00am 7.5 3.1 6.6 94 0.4 W 19 28 10 15 1020.6 1020.6 3.0
27/02:30am 7.0 2.5 5.9 93 0.5 W 19 24 10 13 1020.8 1020.8 3.0
27/02:00am 7.1 2.6 6.0 93 0.5 W 19 22 10 12 1020.8 1020.8 3.0
27/01:30am 7.5 2.5 6.3 92 0.5 W 22 28 12 15 1020.6 1020.6 3.0
27/01:00am 7.6 3.5 6.4 92 0.5 W 17 24 9 13 1020.4 1020.4 3.0
27/12:30am 7.3 3.2 6.4 94 0.4 W 17 20 9 11 1020.2 1020.2 2.8
27/12:00am 7.6 3.0 6.7 94 0.4 W 20 28 11 15 1020.3 1020.3 2.8
 
Date/Time
EST
Temp
°C
App
Temp
°C
Dew
Point
°C
Rel
Hum
%
Delta-T
°C
Wind Press
QNH
hPa
Press
MSL
hPa
Rain since
9am
mm
Dir  Spd
km/h
Gust
km/h
Spd
kts
Gust
kts
26/11:30pm 8.3 3.0 6.9 91 0.7 WSW 24 35 13 19 1020.0 1020.0 2.8
26/11:00pm 7.4 2.9 6.3 93 0.5 W 19 24 10 13 1019.9 1019.9 2.8
26/10:30pm 7.9 4.7 6.8 93 0.5 W 13 19 7 10 1020.1 1020.1 2.6
26/10:00pm 7.8 3.2 6.4 91 0.6 W 20 28 11 15 1020.1 1020.1 2.4
26/09:30pm 7.7 3.3 6.5 92 0.5 W 19 22 10 12 1019.9 1019.9 2.0
26/09:00pm 8.1 3.6 6.2 88 0.9 W 19 28 10 15 1019.5 1019.5 2.0
26/08:30pm 8.5 3.1 6.3 86 1.0 WSW 24 35 13 19 1019.5 1019.5 2.0
26/08:00pm 8.3 3.7 6.3 87 0.9 W 20 30 11 16 1018.7 1018.7 1.8
26/07:30pm 8.6 3.9 5.9 83 1.2 W 20 28 11 15 1018.7 1018.7 1.8
26/07:00pm 8.7 4.3 4.9 77 1.7 W 17 22 9 12 1018.3 1018.3 1.4
26/06:30pm 9.7 4.4 4.9 72 2.2 WSW 22 30 12 16 1017.8 1017.8 1.4
26/06:00pm 10.0 3.3 5.6 74 2.0 SW 30 48 16 26 1017.6 1017.6 1.4
26/05:58pm 10.2 3.8 5.4 72 2.2 SW 28 48 15 26 1017.6 1017.6 1.4
26/05:30pm 10.9 5.3 5.2 68 2.6 WSW 24 32 13 17 1017.2 1017.2 1.4
26/05:00pm 11.2 4.1 5.5 68 2.6 SW 32 41 17 22 1016.5 1016.5 1.4
26/04:30pm 10.3 4.0 5.7 73 2.1 WSW 28 35 15 19 1016.3 1016.3 1.4
26/04:00pm 11.3 3.2 5.2 66 2.8 SW 37 57 20 31 1016.1 1016.1 1.4
26/03:58pm 11.7 4.4 5.6 66 2.8 SW 33 57 18 31 1016.1 1016.1 1.4
26/03:30pm 11.7 5.1 4.2 60 3.4 WSW 28 39 15 21 1015.7 1015.7 1.4
26/03:19pm 10.9 3.6 5.4 69 2.5 SW 33 46 18 25 1015.6 1015.6 1.4
26/03:00pm 12.3 4.5 6.6 68 2.7 SSW 37 46 20 25 1015.3 1015.3 1.4
26/02:43pm 12.1 3.6 5.3 63 3.1 SW 39 67 21 36 1015.0 1015.0 1.4
26/02:30pm 12.9 4.2 4.1 55 4.0 SW 39 48 21 26 1014.8 1014.8 1.4
26/02:00pm 11.5 4.3 6.0 69 2.6 SW 33 46 18 25 1014.7 1014.7 1.4
26/01:48pm 10.7 4.6 6.5 75 2.0 SW 28 46 15 25 1014.8 1014.8 1.2
26/01:30pm 11.7 6.7 6.4 70 2.5 WSW 22 28 12 15 1014.3 1014.3 1.2
26/01:15pm 10.0 1.3 5.8 75 1.9 SW 41 59 22 32 1014.6 1014.6 1.2
26/01:08pm 10.9 2.6 6.1 72 2.2 SW 39 56 21 30 1014.4 1014.4 1.0
26/01:00pm 11.4 2.3 5.9 69 2.6 SSW 43 57 23 31 1014.2 1014.2 1.0
26/12:50pm 13.2 6.9 7.4 68 2.8 SW 30 50 16 27 1014.1 1014.1 1.0
26/12:30pm 11.9 4.0 6.4 69 2.6 SSW 37 54 20 29 1014.0 1014.0 1.0
26/12:06pm 12.5 4.4 7.2 70 2.6 SW 39 52 21 28 1013.7 1013.7 1.0
26/12:00pm 12.2 5.2 8.5 78 1.8 SW 35 46 19 25 1013.6 1013.6 1.0
26/11:50am 10.0 0.2 7.1 82 1.4 SW 48 70 26 38 1013.8 1013.8 1.0
26/11:49am 9.8 0.0 7.1 83 1.3 SW 48 70 26 38 1013.9 1013.9 1.0
26/11:46am 11.2 1.8 7.1 76 2.0 SW 46 70 25 38 1013.6 1013.6 0.6
26/11:44am 12.9 4.6 7.6 70 2.6 SW 41 63 22 34 1013.5 1013.5 0.6
26/11:30am 13.0 4.9 7.0 67 2.9 SSW 39 48 21 26 1013.3 1013.3 0.6
26/11:15am 11.9 4.6 7.0 72 2.3 SSW 35 56 19 30 1013.1 1013.1 0.6
26/11:00am 11.2 3.7 6.5 73 2.2 SSW 35 48 19 26 1012.9 1012.9 0.6
26/10:30am 12.6 3.8 7.3 70 2.6 SSW 43 59 23 32 1012.4 1012.4 0.2
26/10:02am 11.4 2.8 6.7 73 2.2 SSW 41 59 22 32 1012.0 1012.0 0.2
26/10:00am 11.3 2.2 6.8 74 2.1 SSW 44 59 24 32 1012.0 1012.0 0.2
26/09:35am 10.3 1.5 7.2 81 1.5 SSW 43 61 23 33 1011.6 1011.6 0.2
26/09:30am 10.3 1.9 7.2 81 1.5 SW 41 61 22 33 1011.7 1011.7 0.0
26/09:00am 10.2 4.4 8.0 86 1.1 SW 28 46 15 25 1010.9 1010.9 7.8
26/08:59am 10.1 4.3 8.0 87 1.0 SW 28 46 15 25 1010.9 1010.9 7.8
26/08:30am 10.1 4.8 8.4 89 0.8 WSW 26 35 14 19 1010.3 1010.3 7.0
26/08:00am 9.9 6.0 9.3 96 0.3 WNW 20 24 11 13 1009.9 1009.9 6.8
26/07:30am 9.9 5.8 8.7 92 0.6 SW 20 28 11 15 1009.1 1009.1 6.8
26/07:16am 9.9 5.5 9.1 95 0.4 WSW 22 30 12 16 1009.1 1009.1 6.6
26/07:00am 9.9 5.5 9.1 95 0.4 WSW 22 33 12 18 1008.8 1008.8 6.0
26/06:59am 9.9 5.5 9.1 95 0.4 WSW 22 33 12 18 1008.9 1008.9 5.8
26/06:30am 10.1 5.8 9.2 94 0.4 SW 22 35 12 19 1007.8 1007.8 4.8
26/06:00am 10.2 6.5 10.1 99 0.1 W 20 30 11 16 1007.3 1007.3 4.4
26/05:30am 10.1 7.3 10.0 99 0.1 WNW 15 19 8 10 1006.7 1006.7 4.2
26/05:00am 10.1 6.9 10.0 99 0.1 W 17 20 9 11 1006.0 1006.0 4.2
26/04:30am 10.4 6.9 10.2 99 0.1 W 19 24 10 13 1005.9 1005.9 4.0
26/04:00am 10.7 4.4 9.6 93 0.6 WSW 33 46 18 25 1005.5 1005.5 3.8
26/03:46am 10.8 5.5 10.0 95 0.4 SW 28 46 15 25 1005.1 1005.1 3.6
26/03:36am 10.8 4.7 9.9 94 0.5 SW 32 48 17 26 1005.2 1005.2 3.4
26/03:30am 10.8 4.8 10.0 95 0.4 SW 32 48 17 26 1005.1 1005.1 3.2
26/03:17am 11.1 5.2 10.6 97 0.3 SW 32 52 17 28 1004.9 1004.9 2.6
26/03:00am 11.3 4.8 10.5 95 0.4 SW 35 46 19 25 1004.6 1004.6 1.8
26/02:47am 11.5 5.6 10.6 94 0.5 W 32 43 17 23 1004.3 1004.3 1.2
26/02:30am 12.0 5.0 9.9 87 1.1 W 37 46 20 25 1004.0 1004.0 1.0
26/02:23am 12.6 7.6 9.6 82 1.5 W 26 46 14 25 1003.7 1003.7 1.0
26/02:22am 12.9 7.9 9.7 81 1.6 W 26 44 14 24 1003.7 1003.7 1.0
26/02:00am 13.3 9.9 10.7 84 1.4 NNW 19 24 10 13 1003.0 1003.0 1.0
26/01:30am 13.5 9.6 10.7 83 1.5 NW 22 28 12 15 1003.4 1003.4 1.0
26/01:00am 13.4 10.5 11.1 86 1.2 NW 17 24 9 13 1003.8 1003.8 1.0
26/12:30am 12.6 11.3 11.3 92 0.7 N 9 15 5 8 1004.2 1004.2 1.0
26/12:00am 11.8 9.7 11.0 95 0.4 N 13 15 7 8 1004.6 1004.6 1.0
 
Date/Time
EST
Temp
°C
App
Temp
°C
Dew
Point
°C
Rel
Hum
%
Delta-T
°C
Wind Press
QNH
hPa
Press
MSL
hPa
Rain since
9am
mm
Dir  Spd
km/h
Gust
km/h
Spd
kts
Gust
kts
25/11:30pm 12.0 10.2 10.9 93 0.6 N 11 13 6 7 1004.7 1004.7 1.0
25/11:00pm 12.6 10.4 10.8 89 0.9 NW 13 20 7 11 1004.8 1004.8 1.0
25/10:30pm 13.2 11.6 11.4 89 1.0 NW 11 15 6 8 1004.9 1004.9 1.0
25/10:00pm 13.4 10.8 12.0 91 0.8 NW 17 20 9 11 1005.4 1005.4 1.0
25/09:30pm 13.8 10.6 12.0 89 1.0 WNW 20 26 11 14 1005.7 1005.7 1.0
25/09:00pm 13.8 10.6 12.0 89 1.0 NW 20 30 11 16 1005.8 1005.8 1.0
25/08:30pm 13.9 8.0 12.5 91 0.8 NW 35 46 19 25 1006.0 1006.0 0.8
25/08:17pm 15.0 11.8 13.0 88 1.1 N 22 39 12 21 1005.7 1005.7 0.6
25/08:00pm 15.0 12.6 12.5 85 1.4 N 17 20 9 11 1005.0 1005.0 0.4
25/07:30pm 14.5 12.4 12.5 88 1.1 N 15 19 8 10 1005.2 1005.2 0.4
25/07:00pm 14.6 13.0 11.7 83 1.6 NNE 11 15 6 8 1005.5 1005.5 0.4
25/06:30pm 14.8 13.3 11.8 82 1.6 N 11 11 6 6 1005.6 1005.6 0.4
25/06:00pm 14.7 13.6 11.8 83 1.6 NNW 9 11 5 6 1005.8 1005.8 0.4
25/05:30pm 16.6 15.6 12.4 76 2.3 NW 9 11 5 6 1005.9 1005.9 0.4
25/05:00pm 16.8 15.0 12.1 74 2.6 WNW 13 17 7 9 1006.1 1006.1 0.4
25/04:30pm 18.3 16.7 12.7 70 3.1 WNW 13 17 7 9 1006.2 1006.2 0.4
25/04:00pm 17.7 15.8 13.0 74 2.6 WNW 15 20 8 11 1006.4 1006.4 0.4
25/03:30pm 17.3 15.0 13.0 76 2.4 WNW 17 20 9 11 1006.5 1006.5 0.4
25/03:00pm 17.1 14.4 13.4 79 2.1 WNW 20 26 11 14 1006.6 1006.6 0.4
25/02:30pm 17.7 14.8 13.0 74 2.6 W 20 28 11 15 1006.6 1006.6 0.4
25/02:00pm 18.0 15.4 13.1 73 2.8 WSW 19 24 10 13 1006.9 1006.9 0.4
25/01:30pm 17.9 17.7 14.8 82 1.8 SSW 9 15 5 8 1007.0 1007.0 0.4
25/01:00pm 16.9 16.0 14.9 88 1.2 S 13 17 7 9 1007.5 1007.5 0.4
25/12:30pm 17.6 14.5 13.5 77 2.3 W 22 30 12 16 1007.7 1007.7 0.4
25/12:00pm 17.4 14.3 14.5 83 1.7 W 24 32 13 17 1007.9 1007.9 0.4
25/11:30am 17.3 15.4 15.8 91 0.9 W 20 28 11 15 1008.3 1008.3 0.4
25/11:00am 16.4 14.9 16.2 99 0.1 W 19 24 10 13 1008.4 1008.4 0.4
25/10:46am 16.3 14.8 16.3 100 0.0 W 19 26 10 14 1008.5 1008.5 0.2
25/10:30am 15.9 14.6 15.9 100 0.0 W 17 26 9 14 1008.4 1008.4 0.2
25/10:05am 16.0 14.8 16.0 100 0.0 W 17 22 9 12 1008.5 1008.5 0.2
25/10:00am 15.7 14.4 15.7 100 0.0 W 17 22 9 12 1008.5 1008.5 0.2
25/09:30am 15.7 13.9 15.5 99 0.1 W 19 26 10 14 1008.3 1008.3 0.0
25/09:27am 15.7 13.9 15.5 99 0.1 W 19 26 10 14 1008.3 1008.3 0.0
25/09:24am 15.9 14.2 15.7 99 0.1 W 19 28 10 15 1008.3 1008.3 0.0
25/09:00am 16.1 14.5 15.9 99 0.1 W 19 26 10 14 1008.2 1008.2 19.6
25/08:55am 16.2 14.5 16.2 100 0.0 W 20 28 11 15 1008.1 1008.1 19.6
25/08:30am 15.7 13.4 15.7 100 0.0 W 22 30 12 16 1008.0 1008.0 19.6
25/08:05am 15.8 14.1 15.8 100 0.0 W 19 24 10 13 1007.8 1007.8 19.6
25/08:00am 15.7 13.8 15.7 100 0.0 W 20 24 11 13 1007.8 1007.8 19.6
25/07:30am 15.5 12.8 15.5 100 0.0 W 24 30 13 16 1007.5 1007.5 19.6
25/07:14am 15.5 13.1 15.5 100 0.0 W 22 30 12 16 1007.3 1007.3 19.6
25/07:00am 15.6 12.1 15.6 100 0.0 W 28 33 15 18 1007.3 1007.3 19.6
25/06:39am 15.8 13.5 15.8 100 0.0 WNW 22 30 12 16 1006.9 1006.9 19.4
25/06:30am 15.9 14.6 15.9 100 0.0 WNW 17 22 9 12 1006.9 1006.9 19.4
25/06:29am 15.9 14.6 15.9 100 0.0 WNW 17 22 9 12 1006.9 1006.9 19.4
25/06:20am 15.8 15.3 15.8 100 0.0 W 13 17 7 9 1006.9 1006.9 19.2
25/06:00am 15.7 16.3 15.7 100 0.0 N 7 9 4 5 1006.6 1006.6 19.0
25/05:30am 15.7 16.3 15.7 100 0.0 NNE 7 11 4 6 1006.5 1006.5 18.6
25/05:00am 15.6 16.1 15.6 100 0.0 N 7 9 4 5 1006.7 1006.7 18.0
25/04:30am 15.6 16.1 15.6 100 0.0 N 7 9 4 5 1006.7 1006.7 18.0
25/04:00am 15.7 15.9 15.7 100 0.0 N 9 11 5 6 1006.9 1006.9 18.0
25/03:30am 15.8 17.7 15.8 100 0.0 CALM 0 0 0 0 1007.1 1007.1 17.8
25/03:00am 15.8 16.6 15.8 100 0.0 NW 6 7 3 4 1007.6 1007.6 17.6
25/02:30am 15.9 16.5 15.9 100 0.0 NNW 7 7 4 4 1008.2 1008.2 17.6
25/02:00am 15.9 17.9 15.9 100 0.0 CALM 0 0 0 0 1008.5 1008.5 17.6
25/01:44am 15.9 17.9 15.9 100 0.0 CALM 0 0 0 0 1008.7 1008.7 17.6
25/01:30am 15.8 17.7 15.8 100 0.0 CALM 0 0 0 0 1008.9 1008.9 17.6
25/01:00am 16.0 18.0 16.0 100 0.0 CALM 0 0 0 0 1009.5 1009.5 17.2
25/12:30am 15.9 16.5 15.9 100 0.0 SSW 7 9 4 5 1010.0 1010.0 16.8
25/12:00am 15.9 16.5 15.9 100 0.0 S 7 9 4 5 1010.6 1010.6 16.8
 
Date/Time
EST
Temp
°C
App
Temp
°C
Dew
Point
°C
Rel
Hum
%
Delta-T
°C
Wind Press
QNH
hPa
Press
MSL
hPa
Rain since
9am
mm
Dir  Spd
km/h
Gust
km/h
Spd
kts
Gust
kts
24/11:33pm 15.9 15.0 15.9 100 0.0 WSW 15 20 8 11 1011.2 1011.2 16.4
24/11:30pm 15.9 15.0 15.9 100 0.0 W 15 19 8 10 1011.4 1011.4 16.2
24/11:11pm 15.9 14.1 15.9 100 0.0 WNW 20 28 11 15 1011.8 1011.8 15.4
24/11:00pm 15.9 14.6 15.9 100 0.0 WNW 17 24 9 13 1011.9 1011.9 14.8
24/10:45pm 16.2 16.2 16.2 100 0.0 WNW 11 19 6 10 1011.9 1011.9 12.8
24/10:30pm 16.3 17.1 16.3 100 0.0 NW 7 13 4 7 1011.9 1011.9 11.6
24/10:21pm 16.4 16.1 16.4 100 0.0 WNW 13 19 7 10 1012.2 1012.2 10.6
24/10:00pm 16.3 16.7 16.3 100 0.0 SE 9 15 5 8 1011.6 1011.6 9.6
24/09:30pm 16.3 15.9 16.3 100 0.0 ESE 13 17 7 9 1011.7 1011.7 9.6
24/09:00pm 16.3 16.3 16.3 100 0.0 SE 11 13 6 7 1012.2 1012.2 9.6
24/08:32pm 16.1 14.5 16.1 100 0.0 ESE 19 26 10 14 1012.5 1012.5 9.6
24/08:30pm 16.1 14.5 16.1 100 0.0 E 19 26 10 14 1012.4 1012.4 9.6
24/08:27pm 16.1 14.9 16.1 100 0.0 E 17 26 9 14 1012.5 1012.5 9.6
24/08:17pm 16.1 14.3 16.1 100 0.0 SSW 20 35 11 19 1013.5 1013.5 9.6
24/08:16pm 16.1 14.3 16.1 100 0.0 SSW 20 35 11 19 1013.6 1013.6 9.6
24/08:11pm 16.1 14.3 16.1 100 0.0 SSW 20 35 11 19 1012.4 1012.4 7.8
24/08:06pm 16.1 15.3 16.1 100 0.0 S 15 20 8 11 1013.1 1013.1 6.6
24/08:00pm 16.1 14.9 16.1 100 0.0 SSE 17 26 9 14 1013.4 1013.4 6.4
24/07:30pm 15.9 13.7 15.9 100 0.0 SSW 22 26 12 14 1013.7 1013.7 5.0
24/07:18pm 15.6 14.2 15.6 100 0.0 SW 17 26 9 14 1014.2 1014.2 4.8
24/07:10pm 15.8 13.5 15.8 100 0.0 W 22 32 12 17 1014.8 1014.8 3.4
24/07:08pm 15.9 12.9 15.9 100 0.0 WSW 26 35 14 19 1015.0 1015.0 2.2
24/07:07pm 16.0 13.4 16.0 100 0.0 WSW 24 35 13 19 1015.0 1015.0 2.0
24/07:00pm 15.9 13.3 15.9 100 0.0 SW 24 35 13 19 1013.7 1013.7 1.6
24/06:50pm 16.4 13.9 16.2 99 0.1 WSW 24 32 13 17 1014.2 1014.2 1.2
24/06:30pm 17.7 19.1 17.7 100 0.0 SW 7 11 4 6 1013.5 1013.5 0.4
24/06:00pm 17.6 18.8 17.4 99 0.1 SSE 7 9 4 5 1013.3 1013.3 0.2
24/05:30pm 17.9 20.5 17.6 98 0.2 CALM 0 0 0 0 1013.5 1013.5 0.2
24/05:00pm 18.7 19.5 17.4 92 0.8 ESE 9 13 5 7 1013.6 1013.6 0.0
24/04:30pm 19.3 20.4 16.5 84 1.7 ESE 6 7 3 4 1013.7 1013.7 0.0
24/04:00pm 19.4 20.1 16.2 82 1.9 ESE 7 11 4 6 1014.0 1014.0 0.0
24/03:30pm 19.3 19.8 16.5 84 1.7 ESE 9 11 5 6 1014.4 1014.4 0.0
24/03:00pm 19.5 19.5 16.3 82 1.9 ESE 11 13 6 7 1014.9 1014.9 0.0
24/02:30pm 19.4 19.3 16.1 81 2.0 SSE 11 13 6 7 1015.1 1015.1 0.0
24/02:00pm 19.2 19.2 16.2 83 1.8 ESE 11 17 6 9 1015.4 1015.4 0.0
24/01:30pm 19.1 18.7 16.3 84 1.7 SSE 13 17 7 9 1016.0 1016.0 0.0
24/01:00pm 18.7 18.3 16.1 85 1.5 SE 13 17 7 9 1016.5 1016.5 0.0
24/12:30pm 19.6 19.1 17.0 85 1.6 ESE 15 20 8 11 1017.1 1017.1 0.0
24/12:07pm 19.5 19.0 17.8 90 1.0 SE 17 20 9 11 1017.5 1017.5 0.0
24/12:00pm 19.0 18.3 17.3 90 1.0 SE 17 20 9 11 1017.7 1017.7 0.0
24/11:37am 19.1 19.0 16.9 87 1.3 SE 13 19 7 10 1018.2 1018.2 0.0
24/11:30am 19.8 20.3 17.4 86 1.5 ESE 11 17 6 9 1018.3 1018.3 0.0
24/11:00am 19.0 19.5 16.6 86 1.4 ENE 9 13 5 7 1018.7 1018.7 0.0
24/10:30am 18.2 18.6 16.2 88 1.2 ENE 9 15 5 8 1019.2 1019.2 0.0
24/10:00am 17.7 18.6 16.7 94 0.6 NNE 7 13 4 7 1019.7 1019.7 0.0
24/09:57am 17.5 18.4 16.7 95 0.5 NNE 7 13 4 7 1019.7 1019.7 0.0
24/09:30am 17.1 19.5 17.1 100 0.0 CALM 0 0 0 0 1020.1 1020.1 0.0

Other Formats:

Comma delimited format used in spreadsheet applications
http://www.bom.gov.au/fwo/IDV60801/IDV60801.94854.axf

JavaScript Object Notation format (JSON) in row-major order
http://www.bom.gov.au/fwo/IDV60801/IDV60801.94854.json